createdAt,value
2017-10-27T00:01:29.814Z,16.53
2017-10-27T00:03:59.669Z,14.83
2017-10-27T00:06:29.544Z,11.60
2017-10-27T00:08:59.404Z,13.53
2017-10-27T00:11:29.287Z,10.20
2017-10-27T00:13:59.141Z,16.83
2017-10-27T00:16:29.010Z,10.53
2017-10-27T00:18:58.910Z,14.73
2017-10-27T00:21:28.789Z,11.00
2017-10-27T00:23:58.666Z,10.23
2017-10-27T00:26:28.513Z,11.23
2017-10-27T00:28:58.446Z,12.87
2017-10-27T00:31:28.315Z,9.00
2017-10-27T00:33:58.195Z,15.63
2017-10-27T00:36:28.053Z,14.70
2017-10-27T00:38:57.917Z,5.30
2017-10-27T00:41:27.848Z,8.70
2017-10-27T00:43:57.717Z,16.23
2017-10-27T00:46:27.598Z,12.80
2017-10-27T00:48:57.440Z,13.27
2017-10-27T00:51:27.323Z,15.77
2017-10-27T00:53:57.247Z,22.20
2017-10-27T00:56:27.079Z,11.07
2017-10-27T00:58:56.979Z,20.20
2017-10-27T01:01:26.822Z,13.47
2017-10-27T01:03:56.721Z,16.83
2017-10-27T01:06:26.577Z,15.40
2017-10-27T01:08:56.456Z,20.13
2017-10-27T01:11:26.316Z,22.67
2017-10-27T01:13:56.209Z,21.57
2017-10-27T01:16:26.067Z,18.23
2017-10-27T01:18:55.926Z,21.80
2017-10-27T01:21:25.796Z,23.23
2017-10-27T01:23:55.647Z,14.53
2017-10-27T01:26:25.556Z,13.50
2017-10-27T01:28:55.397Z,25.10
2017-10-27T01:31:25.258Z,19.30
2017-10-27T01:33:55.103Z,17.73
2017-10-27T01:36:24.965Z,16.50
2017-10-27T01:38:54.831Z,14.33
2017-10-27T01:41:24.685Z,28.93
2017-10-27T01:43:54.557Z,19.30
2017-10-27T01:46:24.387Z,12.33
2017-10-27T01:48:54.241Z,18.63
2017-10-27T01:51:24.233Z,17.10
2017-10-27T01:53:54.073Z,23.43
2017-10-27T01:56:23.946Z,10.90
2017-10-27T01:58:53.787Z,17.73
2017-10-27T02:01:24.558Z,19.03
2017-10-27T02:03:54.430Z,16.93
2017-10-27T02:06:24.341Z,18.77
2017-10-27T02:08:54.167Z,12.27
2017-10-27T02:11:24.025Z,12.30
2017-10-27T02:13:53.873Z,16.67
2017-10-27T02:16:23.714Z,11.20
2017-10-27T02:18:53.571Z,19.47
2017-10-27T02:21:23.569Z,12.03
2017-10-27T02:23:53.438Z,8.30
2017-10-27T02:26:23.269Z,18.43
2017-10-27T02:28:53.381Z,14.73
2017-10-27T02:31:23.311Z,14.63
2017-10-27T02:33:53.168Z,12.00
2017-10-27T02:36:23.066Z,9.97
2017-10-27T02:38:52.918Z,14.47
2017-10-27T02:41:22.885Z,22.87
2017-10-27T02:43:52.749Z,15.60
2017-10-27T02:46:22.635Z,14.23
2017-10-27T02:48:52.503Z,16.87
2017-10-27T02:51:22.447Z,17.53
2017-10-27T02:53:52.330Z,6.87
2017-10-27T02:56:22.204Z,12.13
2017-10-27T02:58:52.069Z,16.33
2017-10-27T03:01:21.971Z,10.70
2017-10-27T03:03:51.841Z,10.73
2017-10-27T03:06:21.694Z,12.80
2017-10-27T03:08:51.602Z,15.00
2017-10-27T03:11:21.469Z,10.00
2017-10-27T03:13:51.482Z,10.73
2017-10-27T03:16:21.337Z,12.73
2017-10-27T03:18:51.211Z,8.17
2017-10-27T03:21:21.089Z,16.63
2017-10-27T03:23:50.944Z,9.03
2017-10-27T03:26:20.829Z,6.87
2017-10-27T03:28:50.679Z,8.73
2017-10-27T03:31:20.541Z,9.60
2017-10-27T03:33:50.422Z,15.03
2017-10-27T03:36:20.306Z,10.07
2017-10-27T03:38:50.162Z,10.70
2017-10-27T03:41:20.026Z,15.83
2017-10-27T03:43:49.993Z,12.63
2017-10-27T03:46:19.928Z,14.97
2017-10-27T03:48:49.809Z,12.13
2017-10-27T03:51:19.657Z,8.70
2017-10-27T03:53:49.534Z,10.90
2017-10-27T03:56:19.394Z,10.80
2017-10-27T03:58:49.245Z,16.10
2017-10-27T04:01:19.121Z,11.70
2017-10-27T04:03:48.976Z,7.03
2017-10-27T04:06:18.873Z,15.87
2017-10-27T04:08:48.748Z,15.77
2017-10-27T04:11:18.622Z,12.93
2017-10-27T04:13:48.480Z,11.83
2017-10-27T04:16:18.362Z,11.40
2017-10-27T04:18:48.258Z,15.90
2017-10-27T04:21:18.129Z,12.20
2017-10-27T04:23:48.017Z,10.20
2017-10-27T04:26:17.856Z,9.03
2017-10-27T04:28:47.725Z,15.30
2017-10-27T04:31:17.585Z,30.47
2017-10-27T04:33:47.489Z,16.67
2017-10-27T04:36:17.343Z,11.57
2017-10-27T04:38:47.211Z,15.83
2017-10-27T04:41:17.078Z,12.77
2017-10-27T04:43:46.951Z,20.57
2017-10-27T04:46:16.819Z,12.63
2017-10-27T04:48:46.687Z,18.37
2017-10-27T04:51:16.580Z,21.37
2017-10-27T04:53:46.449Z,20.73
2017-10-27T04:56:16.310Z,16.03
2017-10-27T04:58:46.174Z,14.60
2017-10-27T05:01:16.037Z,6.70
2017-10-27T05:03:45.925Z,10.93
2017-10-27T05:06:15.777Z,17.40
2017-10-27T05:08:45.682Z,13.13
2017-10-27T05:11:15.558Z,19.73
2017-10-27T05:13:45.451Z,17.53
2017-10-27T05:16:15.388Z,8.33
2017-10-27T05:18:50.898Z,7.33
2017-10-27T05:21:26.232Z,7.50
2017-10-27T05:24:01.828Z,8.43
2017-10-27T05:26:31.680Z,8.60
2017-10-27T05:29:01.632Z,12.60
2017-10-27T05:31:31.478Z,13.20
2017-10-27T05:34:01.365Z,9.27
2017-10-27T05:36:31.222Z,9.20
2017-10-27T05:39:01.091Z,13.90
2017-10-27T05:41:30.962Z,14.73
2017-10-27T05:44:00.835Z,9.77
2017-10-27T05:46:30.688Z,18.70
2017-10-27T05:49:01.069Z,8.40
2017-10-27T05:51:30.945Z,9.23
2017-10-27T05:54:00.802Z,8.70
2017-10-27T05:56:30.699Z,11.47
2017-10-27T05:59:00.571Z,18.53
2017-10-27T06:01:30.527Z,14.00
2017-10-27T06:04:00.377Z,16.67
2017-10-27T06:06:30.274Z,15.03
2017-10-27T06:09:00.141Z,13.63
2017-10-27T06:11:30.244Z,21.37
2017-10-27T06:14:00.133Z,8.20
2017-10-27T06:16:30.046Z,5.93
2017-10-27T06:18:59.920Z,9.73
2017-10-27T06:21:29.817Z,11.20
2017-10-27T06:23:59.709Z,6.57
2017-10-27T06:26:29.593Z,10.03
2017-10-27T06:28:59.470Z,12.90
2017-10-27T06:31:29.446Z,18.10
2017-10-27T06:33:59.326Z,11.33
2017-10-27T06:36:29.190Z,7.63
2017-10-27T06:38:59.044Z,10.03
2017-10-27T06:41:29.160Z,11.77
2017-10-27T06:43:59.017Z,10.20
2017-10-27T06:46:28.934Z,10.57
2017-10-27T06:48:58.834Z,10.57
2017-10-27T06:51:28.995Z,11.40
2017-10-27T06:53:58.906Z,10.93
2017-10-27T06:56:28.886Z,24.20
2017-10-27T06:58:58.761Z,10.53
2017-10-27T07:01:28.772Z,14.50
2017-10-27T07:03:58.658Z,11.00
2017-10-27T07:06:28.551Z,10.00
2017-10-27T07:08:58.405Z,13.10
2017-10-27T07:11:28.301Z,10.73
2017-10-27T07:13:58.183Z,12.10
2017-10-27T07:16:28.036Z,21.10
2017-10-27T07:18:57.958Z,9.50
2017-10-27T07:21:27.805Z,12.47
2017-10-27T07:23:57.669Z,8.53
2017-10-27T07:26:27.746Z,6.53
2017-10-27T07:28:57.621Z,9.30
2017-10-27T07:31:27.475Z,16.90
2017-10-27T07:33:57.333Z,11.20
2017-10-27T07:36:27.212Z,14.37
2017-10-27T07:38:57.102Z,7.20
2017-10-27T07:41:27.041Z,17.53
2017-10-27T07:43:56.915Z,10.57
2017-10-27T07:46:26.796Z,16.20
2017-10-27T07:48:56.663Z,8.60
2017-10-27T07:51:26.552Z,7.87
2017-10-27T07:53:56.431Z,13.60
2017-10-27T07:56:26.386Z,12.60
2017-10-27T07:58:56.598Z,12.40
2017-10-27T08:01:27.201Z,18.23
2017-10-27T08:03:57.054Z,7.40
2017-10-27T08:06:27.949Z,14.13
2017-10-27T08:08:57.803Z,10.20
2017-10-27T08:11:27.677Z,11.00
2017-10-27T08:13:57.715Z,5.80
2017-10-27T08:16:27.619Z,15.53
2017-10-27T08:18:57.473Z,6.67
2017-10-27T08:21:27.341Z,13.27
2017-10-27T08:23:57.268Z,6.73
2017-10-27T08:26:27.241Z,13.17
2017-10-27T08:28:57.092Z,11.53
2017-10-27T08:31:27.080Z,10.60
2017-10-27T08:33:56.940Z,7.53
2017-10-27T08:36:26.818Z,17.80
2017-10-27T08:38:56.686Z,10.83
2017-10-27T08:41:26.581Z,8.50
2017-10-27T08:43:56.450Z,13.07
2017-10-27T08:46:26.292Z,8.30
2017-10-27T08:48:56.165Z,11.53
2017-10-27T08:51:26.013Z,8.10
2017-10-27T08:53:57.062Z,13.33
2017-10-27T08:56:27.131Z,12.67
2017-10-27T08:58:56.986Z,10.33
2017-10-27T09:01:26.850Z,12.70
2017-10-27T09:03:56.709Z,7.00
2017-10-27T09:06:26.613Z,10.70
2017-10-27T09:08:56.450Z,12.00
2017-10-27T09:11:26.318Z,10.00
2017-10-27T09:13:56.153Z,9.93
2017-10-27T09:16:26.011Z,10.50
2017-10-27T09:18:55.878Z,17.03
2017-10-27T09:21:25.865Z,8.90
2017-10-27T09:23:55.864Z,10.77
2017-10-27T09:26:25.709Z,9.03
2017-10-27T09:28:55.588Z,8.87
2017-10-27T09:31:25.435Z,12.50
2017-10-27T09:33:55.298Z,15.10
2017-10-27T09:36:25.173Z,7.60
2017-10-27T09:38:55.064Z,15.80
2017-10-27T09:41:24.956Z,12.23
2017-10-27T09:43:54.908Z,7.80
2017-10-27T09:46:24.769Z,13.70
2017-10-27T09:48:54.664Z,10.90
2017-10-27T09:51:24.540Z,9.60
2017-10-27T09:53:54.392Z,7.57
2017-10-27T09:56:24.302Z,5.90
2017-10-27T09:58:54.166Z,7.63
2017-10-27T10:01:24.111Z,4.83
2017-10-27T10:03:53.979Z,11.17
2017-10-27T10:06:23.877Z,10.00
2017-10-27T10:08:53.784Z,13.77
2017-10-27T10:11:23.632Z,12.87
2017-10-27T10:13:53.505Z,12.63
2017-10-27T10:16:23.380Z,16.77
2017-10-27T10:18:53.345Z,10.20
2017-10-27T10:21:23.459Z,4.47
2017-10-27T10:23:53.322Z,9.73
2017-10-27T10:26:23.180Z,6.30
2017-10-27T10:28:53.042Z,4.13
2017-10-27T10:31:22.926Z,5.53
2017-10-27T10:33:52.941Z,6.80
2017-10-27T10:36:22.885Z,8.33
2017-10-27T10:38:52.725Z,6.00
2017-10-27T10:41:22.602Z,4.83
2017-10-27T10:43:52.456Z,10.10
2017-10-27T10:46:22.319Z,5.03
2017-10-27T10:48:52.228Z,5.70
2017-10-27T10:51:22.084Z,5.17
2017-10-27T10:53:51.945Z,4.73
2017-10-27T10:56:21.852Z,2.07
2017-10-27T10:58:51.725Z,5.20
2017-10-27T11:01:21.582Z,5.00
2017-10-27T11:03:51.504Z,2.60
2017-10-27T11:06:21.352Z,7.47
2017-10-27T11:08:51.241Z,4.47
2017-10-27T11:11:21.078Z,2.30
2017-10-27T11:13:50.974Z,1.47
2017-10-27T11:16:20.856Z,3.07
2017-10-27T11:18:50.704Z,2.20
2017-10-27T11:21:20.598Z,2.20
2017-10-27T11:23:50.454Z,1.27
2017-10-27T11:26:20.390Z,6.33
2017-10-27T11:28:50.251Z,3.43
2017-10-27T11:31:20.123Z,2.07
2017-10-27T11:33:50.049Z,5.83
2017-10-27T11:36:19.921Z,1.30
2017-10-27T11:38:49.818Z,6.33
2017-10-27T11:41:19.678Z,0.90
2017-10-27T11:43:49.561Z,3.20
2017-10-27T11:46:19.438Z,2.10
2017-10-27T11:48:49.329Z,3.90
2017-10-27T11:51:19.288Z,3.13
2017-10-27T11:53:49.258Z,4.50
2017-10-27T11:56:19.227Z,3.07
2017-10-27T11:58:49.407Z,2.87
2017-10-27T12:01:19.413Z,3.00
2017-10-27T12:03:49.355Z,1.53
2017-10-27T12:06:19.470Z,2.40
2017-10-27T12:08:49.464Z,3.47
2017-10-27T12:11:19.333Z,4.23
2017-10-27T12:13:49.217Z,1.60
2017-10-27T12:16:19.081Z,1.00
2017-10-27T12:18:48.945Z,1.20
2017-10-27T12:21:18.782Z,3.00
2017-10-27T12:23:48.669Z,5.43
2017-10-27T12:26:18.516Z,5.40
2017-10-27T12:28:48.398Z,1.30
2017-10-27T12:31:18.261Z,1.20
2017-10-27T12:33:48.133Z,2.10
2017-10-27T12:36:18.033Z,2.03
2017-10-27T12:38:47.945Z,2.57
2017-10-27T12:41:18.106Z,2.33
2017-10-27T12:43:47.983Z,4.20
2017-10-27T12:46:17.946Z,3.80
2017-10-27T12:48:47.790Z,2.60
2017-10-27T12:51:17.693Z,3.63
2017-10-27T12:53:47.564Z,1.23
2017-10-27T12:56:17.434Z,2.17
2017-10-27T12:58:47.316Z,1.87
2017-10-27T13:01:17.211Z,3.43
2017-10-27T13:03:47.080Z,2.70
2017-10-27T13:06:16.934Z,3.60
2017-10-27T13:08:46.823Z,2.70
2017-10-27T13:11:16.719Z,4.00
2017-10-27T13:13:46.612Z,1.03
2017-10-27T13:16:16.459Z,2.40
2017-10-27T13:18:46.359Z,4.77
2017-10-27T13:21:16.239Z,3.83
2017-10-27T13:23:46.108Z,7.10
2017-10-27T13:26:15.985Z,2.30
2017-10-27T13:28:45.946Z,5.33
2017-10-27T13:31:15.822Z,1.27
2017-10-27T13:33:45.752Z,2.80
2017-10-27T13:36:15.661Z,6.03
2017-10-27T13:38:45.546Z,1.50
2017-10-27T13:41:15.459Z,4.83
2017-10-27T13:43:45.313Z,2.53
2017-10-27T13:46:15.222Z,2.80
2017-10-27T13:48:45.076Z,1.90
2017-10-27T13:51:14.949Z,4.57
2017-10-27T13:53:44.818Z,3.37
2017-10-27T13:56:14.663Z,2.00
2017-10-27T13:58:44.565Z,3.63
2017-10-27T14:01:14.425Z,3.50
2017-10-27T14:03:44.265Z,3.43
2017-10-27T14:06:14.160Z,1.03
2017-10-27T14:08:44.017Z,3.47
2017-10-27T14:11:13.933Z,2.40
2017-10-27T14:13:43.799Z,2.33
2017-10-27T14:16:13.688Z,4.90
2017-10-27T14:18:43.559Z,0.90
2017-10-27T14:21:13.454Z,2.40
2017-10-27T14:23:43.383Z,2.83
2017-10-27T14:26:13.262Z,3.30
2017-10-27T14:28:43.132Z,1.87
2017-10-27T14:31:12.978Z,4.20
2017-10-27T14:33:42.865Z,3.53
2017-10-27T14:36:12.758Z,3.17
2017-10-27T14:38:42.647Z,7.20
2017-10-27T14:41:13.310Z,6.90
2017-10-27T14:43:43.210Z,1.70
2017-10-27T14:46:13.087Z,4.50
2017-10-27T14:48:42.960Z,5.33
2017-10-27T14:51:12.809Z,2.57
2017-10-27T14:53:42.722Z,1.40
2017-10-27T14:56:12.590Z,2.30
2017-10-27T14:58:42.496Z,1.90
2017-10-27T15:01:12.445Z,1.83
2017-10-27T15:03:42.565Z,4.17
2017-10-27T15:06:12.446Z,2.03
2017-10-27T15:08:42.562Z,2.70
2017-10-27T15:11:12.528Z,3.90
2017-10-27T15:13:42.433Z,1.13
2017-10-27T15:16:12.325Z,2.77
2017-10-27T15:18:42.278Z,3.67
2017-10-27T15:21:12.120Z,3.00
2017-10-27T15:23:41.991Z,5.40
2017-10-27T15:26:11.896Z,4.20
2017-10-27T15:28:41.757Z,9.73
2017-10-27T15:31:11.778Z,3.03
2017-10-27T15:33:41.746Z,4.13
2017-10-27T15:36:11.743Z,5.73
2017-10-27T15:38:41.603Z,3.90
2017-10-27T15:41:11.537Z,1.97
2017-10-27T15:43:41.432Z,3.63
2017-10-27T15:46:11.367Z,3.20
2017-10-27T15:48:41.277Z,5.00
2017-10-27T15:51:11.163Z,2.03
2017-10-27T15:53:41.109Z,6.20
2017-10-27T15:56:10.963Z,3.83
2017-10-27T15:58:40.808Z,8.20
2017-10-27T16:01:10.806Z,4.83
2017-10-27T16:03:40.703Z,6.87
2017-10-27T16:06:10.569Z,3.60
2017-10-27T16:08:40.471Z,3.90
2017-10-27T16:11:10.376Z,17.43
2017-10-27T16:13:40.274Z,10.40
2017-10-27T16:16:10.159Z,4.57
2017-10-27T16:18:40.022Z,7.70
2017-10-27T16:21:09.928Z,6.47
2017-10-27T16:23:39.801Z,7.10
2017-10-27T16:26:09.701Z,10.10
2017-10-27T16:28:39.607Z,7.30
2017-10-27T16:31:09.483Z,6.00
2017-10-27T16:33:39.353Z,6.70
2017-10-27T16:36:09.229Z,11.53
2017-10-27T16:38:39.202Z,12.40
2017-10-27T16:41:09.141Z,7.80
2017-10-27T16:43:39.065Z,10.33
2017-10-27T16:46:08.920Z,11.60
2017-10-27T16:48:38.818Z,16.47
2017-10-27T16:51:08.849Z,8.80
2017-10-27T16:53:38.722Z,6.63
2017-10-27T16:56:08.571Z,11.90
2017-10-27T16:58:38.465Z,8.30
2017-10-27T17:01:08.356Z,11.63
2017-10-27T17:03:38.306Z,6.33
2017-10-27T17:06:08.174Z,5.80
2017-10-27T17:08:38.034Z,6.73
2017-10-27T17:11:08.039Z,16.93
2017-10-27T17:13:38.093Z,5.40
2017-10-27T17:16:07.991Z,14.00
2017-10-27T17:18:37.862Z,9.23
2017-10-27T17:21:07.747Z,8.70
2017-10-27T17:23:37.838Z,6.87
2017-10-27T17:26:07.706Z,10.67
2017-10-27T17:28:37.570Z,16.53
2017-10-27T17:31:07.457Z,18.07
2017-10-27T17:33:37.355Z,10.93
2017-10-27T17:36:07.245Z,7.67
2017-10-27T17:38:37.170Z,6.03
2017-10-27T17:41:07.085Z,12.93
2017-10-27T17:43:37.037Z,5.37
2017-10-27T17:46:07.795Z,7.67
2017-10-27T17:48:37.753Z,9.87
2017-10-27T17:51:07.761Z,18.67
2017-10-27T17:53:37.970Z,5.33
2017-10-27T17:56:07.917Z,13.60
2017-10-27T17:58:38.118Z,14.07
2017-10-27T18:01:07.962Z,12.47
2017-10-27T18:03:37.843Z,10.53
2017-10-27T18:06:07.723Z,10.33
2017-10-27T18:08:37.897Z,11.67
2017-10-27T18:11:07.835Z,9.90
2017-10-27T18:13:38.022Z,19.23
2017-10-27T18:16:07.878Z,10.43
2017-10-27T18:18:38.149Z,10.07
2017-10-27T18:21:07.999Z,5.60
2017-10-27T18:23:38.227Z,12.13
2017-10-27T18:26:08.095Z,5.80
2017-10-27T18:28:38.330Z,14.63
2017-10-27T18:31:08.216Z,9.30
2017-10-27T18:33:38.099Z,6.97
2017-10-27T18:36:07.952Z,8.30
2017-10-27T18:38:38.208Z,6.30
2017-10-27T18:41:08.119Z,6.30
2017-10-27T18:43:38.322Z,6.50
2017-10-27T18:46:08.162Z,5.07
2017-10-27T18:48:38.401Z,6.87
2017-10-27T18:51:08.284Z,8.57
2017-10-27T18:53:38.467Z,11.60
2017-10-27T18:56:08.343Z,15.13
2017-10-27T18:58:38.343Z,6.07
2017-10-27T19:01:08.254Z,11.17
2017-10-27T19:03:38.189Z,8.13
2017-10-27T19:06:08.078Z,11.87
2017-10-27T19:08:37.992Z,7.50
2017-10-27T19:11:07.930Z,19.03
2017-10-27T19:13:37.803Z,6.87
2017-10-27T19:16:07.980Z,8.07
2017-10-27T19:18:37.926Z,8.90
2017-10-27T19:21:08.105Z,12.30
2017-10-27T19:23:38.042Z,10.07
2017-10-27T19:26:08.280Z,10.13
2017-10-27T19:28:38.158Z,11.43
2017-10-27T19:31:08.044Z,7.67
2017-10-27T19:33:38.007Z,7.80
2017-10-27T19:36:07.998Z,13.60
2017-10-27T19:38:37.868Z,9.43
2017-10-27T19:41:08.018Z,16.60
2017-10-27T19:43:38.643Z,6.57
2017-10-27T19:46:08.826Z,15.13
2017-10-27T19:48:38.761Z,6.57
2017-10-27T19:51:09.088Z,9.37
2017-10-27T19:53:38.950Z,11.10
2017-10-27T19:56:09.299Z,8.50
2017-10-27T19:58:39.202Z,8.10
2017-10-27T20:01:09.438Z,17.03
2017-10-27T20:03:39.279Z,15.90
2017-10-27T20:06:10.549Z,8.40
2017-10-27T20:08:40.656Z,26.47
2017-10-27T20:11:10.842Z,16.00
2017-10-27T20:13:40.710Z,11.30
2017-10-27T20:16:10.969Z,17.03
2017-10-27T20:18:40.861Z,16.03
2017-10-27T20:21:11.106Z,11.23
2017-10-27T20:23:40.936Z,16.00
2017-10-27T20:26:11.146Z,20.67
2017-10-27T20:28:41.057Z,11.73
2017-10-27T20:31:11.479Z,10.30
2017-10-27T20:33:41.481Z,14.70
2017-10-27T20:36:11.703Z,12.73
2017-10-27T20:38:41.567Z,15.73
2017-10-27T20:41:11.833Z,13.20
2017-10-27T20:43:41.685Z,17.80
2017-10-27T20:46:11.751Z,14.80
2017-10-27T20:48:41.626Z,18.63
2017-10-27T20:51:11.579Z,16.93
2017-10-27T20:53:41.486Z,12.37
2017-10-27T20:56:11.738Z,13.33
2017-10-27T20:58:41.610Z,8.60
2017-10-27T21:01:11.781Z,16.00
2017-10-27T21:03:41.649Z,20.67
2017-10-27T21:06:11.886Z,10.33
2017-10-27T21:08:41.764Z,15.23
2017-10-27T21:11:11.659Z,11.17
2017-10-27T21:13:41.537Z,14.43
2017-10-27T21:16:11.745Z,14.27
2017-10-27T21:18:42.563Z,9.47
2017-10-27T21:21:12.742Z,12.60
2017-10-27T21:23:42.639Z,15.73
2017-10-27T21:26:12.831Z,8.50
2017-10-27T21:28:42.727Z,8.43
2017-10-27T21:31:12.886Z,14.93
2017-10-27T21:33:42.786Z,4.70
2017-10-27T21:36:12.694Z,10.30
2017-10-27T21:38:42.541Z,16.63
2017-10-27T21:41:12.697Z,9.73
2017-10-27T21:43:42.565Z,10.73
2017-10-27T21:46:12.800Z,7.40
2017-10-27T21:48:42.660Z,12.07
2017-10-27T21:51:12.914Z,12.33
2017-10-27T21:53:42.787Z,13.93
2017-10-27T21:56:12.662Z,6.10
2017-10-27T21:58:42.605Z,12.13
2017-10-27T22:01:12.785Z,10.63
2017-10-27T22:03:42.830Z,6.30
2017-10-27T22:06:13.093Z,14.70
2017-10-27T22:08:42.970Z,11.03
2017-10-27T22:11:13.102Z,6.67
2017-10-27T22:13:42.974Z,4.43
2017-10-27T22:16:12.876Z,4.77
2017-10-27T22:18:42.757Z,6.73
2017-10-27T22:21:12.914Z,6.00
2017-10-27T22:23:42.883Z,5.07
2017-10-27T22:26:13.241Z,8.23
2017-10-27T22:28:43.240Z,10.10
2017-10-27T22:31:13.148Z,4.40
2017-10-27T22:33:43.021Z,8.23
2017-10-27T22:36:12.903Z,9.37
2017-10-27T22:38:42.874Z,4.27
2017-10-27T22:41:13.123Z,4.10
2017-10-27T22:43:42.983Z,7.17
2017-10-27T22:46:13.266Z,2.77
2017-10-27T22:48:43.242Z,4.00
2017-10-27T22:51:13.396Z,8.00
2017-10-27T22:53:43.272Z,8.73
2017-10-27T22:56:13.160Z,4.23
2017-10-27T22:58:43.016Z,2.87
2017-10-27T23:01:12.864Z,5.63
2017-10-27T23:03:43.088Z,6.23
2017-10-27T23:06:12.961Z,7.80
2017-10-27T23:08:43.101Z,6.03
2017-10-27T23:11:12.974Z,6.80
2017-10-27T23:13:43.136Z,9.33
2017-10-27T23:16:13.015Z,7.77
2017-10-27T23:18:43.012Z,3.77
2017-10-27T23:21:12.890Z,10.23
2017-10-27T23:23:43.032Z,9.93
2017-10-27T23:26:12.921Z,6.50
2017-10-27T23:28:43.107Z,9.73
2017-10-27T23:31:12.986Z,7.80
2017-10-27T23:33:42.900Z,7.93
2017-10-27T23:36:12.750Z,9.40
2017-10-27T23:38:42.905Z,6.63
2017-10-27T23:41:12.846Z,6.30
2017-10-27T23:43:43.138Z,6.80
2017-10-27T23:46:13.013Z,5.83
2017-10-27T23:48:43.156Z,11.93
2017-10-27T23:51:13.011Z,6.83
2017-10-27T23:53:43.395Z,6.37
2017-10-27T23:56:13.246Z,11.30
2017-10-27T23:58:43.422Z,6.50
